createdAt,value
2022-12-20T00:01:22.406Z,6.32
2022-12-20T00:03:51.492Z,5.15
2022-12-20T00:06:19.461Z,3.15
2022-12-20T00:08:47.015Z,2.33
2022-12-20T00:11:14.348Z,2.67
2022-12-20T00:13:41.695Z,4.15
2022-12-20T00:16:15.099Z,4.13
2022-12-20T00:18:43.109Z,3.88
2022-12-20T00:21:13.616Z,4.78
2022-12-20T00:23:41.368Z,3.05
2022-12-20T00:26:11.269Z,3.90
2022-12-20T00:28:39.617Z,4.07
2022-12-20T00:31:07.869Z,3.65
2022-12-20T00:33:37.406Z,5.28
2022-12-20T00:36:06.160Z,4.63
2022-12-20T00:38:33.680Z,4.32
2022-12-20T00:41:05.130Z,4.65
2022-12-20T00:43:32.843Z,4.60
2022-12-20T00:46:00.804Z,3.22
2022-12-20T00:48:30.197Z,4.18
2022-12-20T00:51:02.185Z,3.70
2022-12-20T00:53:29.808Z,3.88
2022-12-20T00:55:57.363Z,3.92
2022-12-20T00:58:24.733Z,3.47
2022-12-20T01:00:56.068Z,3.08
2022-12-20T01:03:25.015Z,4.68
2022-12-20T01:05:56.048Z,2.88
2022-12-20T01:08:24.431Z,3.72
2022-12-20T01:11:15.695Z,4.15
2022-12-20T01:13:46.827Z,4.50
2022-12-20T01:16:17.524Z,2.85
2022-12-20T01:18:46.445Z,4.55
2022-12-20T01:21:15.300Z,4.65
2022-12-20T01:23:42.540Z,5.95
2022-12-20T01:26:13.298Z,3.70
2022-12-20T01:28:42.843Z,4.82
2022-12-20T01:31:13.329Z,4.70
2022-12-20T01:33:40.716Z,4.90
2022-12-20T01:36:11.222Z,2.85
2022-12-20T01:38:38.462Z,2.95
2022-12-20T01:41:05.926Z,3.15
2022-12-20T01:43:52.096Z,5.78
2022-12-20T01:46:21.822Z,4.50
2022-12-20T01:48:56.547Z,3.95
2022-12-20T01:51:24.820Z,2.88
2022-12-20T01:53:58.141Z,5.90
2022-12-20T01:56:25.188Z,4.70
2022-12-20T01:58:55.159Z,5.28
2022-12-20T02:01:24.452Z,4.45
2022-12-20T02:03:54.201Z,4.37
2022-12-20T02:06:25.907Z,5.40
2022-12-20T02:08:55.675Z,4.88
2022-12-20T02:11:31.741Z,8.05
2022-12-20T02:14:01.844Z,7.63
2022-12-20T02:16:35.924Z,6.18
2022-12-20T02:19:38.103Z,7.97
2022-12-20T02:22:24.020Z,5.82
2022-12-20T02:25:36.153Z,6.68
2022-12-20T02:28:40.307Z,4.85
2022-12-20T02:31:13.165Z,8.65
2022-12-20T02:33:45.157Z,7.57
2022-12-20T02:36:14.528Z,6.38
2022-12-20T02:38:41.745Z,7.60
2022-12-20T02:41:33.468Z,8.52
2022-12-20T02:44:24.982Z,4.20
2022-12-20T02:46:53.992Z,7.43
2022-12-20T02:49:27.242Z,5.75
2022-12-20T02:51:56.627Z,5.35
2022-12-20T02:54:24.815Z,5.57
2022-12-20T02:57:00.606Z,5.95
2022-12-20T02:59:35.637Z,6.85
2022-12-20T03:02:05.272Z,6.75
2022-12-20T03:04:37.795Z,8.98
2022-12-20T03:07:12.597Z,9.13
2022-12-20T03:09:42.906Z,4.88
2022-12-20T03:12:12.007Z,7.72
2022-12-20T03:14:40.633Z,9.25
2022-12-20T03:17:11.653Z,11.27
2022-12-20T03:19:38.754Z,12.73
2022-12-20T03:22:06.405Z,9.45
2022-12-20T03:24:33.804Z,12.38
2022-12-20T03:27:01.392Z,11.00
2022-12-20T03:29:28.873Z,7.30
2022-12-20T03:31:55.849Z,8.15
2022-12-20T03:34:23.034Z,7.78
2022-12-20T03:36:50.221Z,5.30
2022-12-20T03:39:17.605Z,7.70
2022-12-20T03:41:44.891Z,9.98
2022-12-20T03:44:16.026Z,12.30
2022-12-20T03:46:43.260Z,9.93
2022-12-20T03:49:10.758Z,8.50
2022-12-20T03:51:44.752Z,6.90
2022-12-20T03:54:12.146Z,8.13
2022-12-20T03:56:58.909Z,14.07
2022-12-20T03:59:26.744Z,12.30
2022-12-20T04:01:53.793Z,16.60
2022-12-20T04:04:21.194Z,11.48
2022-12-20T04:06:48.488Z,13.15
2022-12-20T04:09:16.369Z,12.15
2022-12-20T04:11:48.621Z,10.73
2022-12-20T04:14:16.182Z,11.07
2022-12-20T04:16:44.374Z,10.70
2022-12-20T04:19:12.249Z,7.95
2022-12-20T04:21:46.111Z,9.88
2022-12-20T04:24:14.524Z,11.68
2022-12-20T04:26:50.493Z,7.43
2022-12-20T04:29:18.228Z,9.45
2022-12-20T04:31:46.323Z,4.85
2022-12-20T04:34:13.504Z,8.07
2022-12-20T04:36:40.619Z,8.77
2022-12-20T04:39:14.229Z,7.35
2022-12-20T04:42:02.763Z,8.60
2022-12-20T04:44:29.860Z,18.20
2022-12-20T04:46:56.982Z,11.93
2022-12-20T04:49:24.876Z,18.80
2022-12-20T04:51:51.986Z,13.98
2022-12-20T04:54:19.394Z,11.57
2022-12-20T04:56:57.794Z,12.68
2022-12-20T04:59:25.111Z,13.25
2022-12-20T05:01:54.407Z,10.87
2022-12-20T05:04:53.651Z,7.38
2022-12-20T05:07:21.584Z,5.50
2022-12-20T05:09:52.614Z,9.95
2022-12-20T05:12:19.777Z,9.68
2022-12-20T05:14:46.769Z,8.65
2022-12-20T05:17:16.516Z,3.35
2022-12-20T05:19:44.215Z,7.68
2022-12-20T05:22:31.720Z,9.10
2022-12-20T05:25:29.793Z,6.32
2022-12-20T05:27:59.937Z,7.78
2022-12-20T05:30:29.917Z,7.15
2022-12-20T05:32:57.829Z,6.30
2022-12-20T05:35:25.217Z,6.35
2022-12-20T05:37:58.502Z,6.75
2022-12-20T05:40:26.641Z,7.03
2022-12-20T05:42:54.488Z,6.93
2022-12-20T05:45:28.631Z,8.43
2022-12-20T05:48:02.208Z,6.22
2022-12-20T05:53:18.082Z,3.95
2022-12-20T05:55:52.912Z,2.88
2022-12-20T05:58:21.566Z,10.45
2022-12-20T06:01:02.889Z,4.13
2022-12-20T06:03:33.333Z,6.20
2022-12-20T06:06:06.001Z,8.88
2022-12-20T06:08:35.718Z,8.77
2022-12-20T06:11:05.612Z,9.35
2022-12-20T06:13:39.079Z,7.80
2022-12-20T06:16:07.992Z,5.80
2022-12-20T06:18:35.633Z,10.10
2022-12-20T06:21:04.169Z,7.72
2022-12-20T06:23:31.426Z,9.05
2022-12-20T06:26:09.399Z,6.07
2022-12-20T06:28:44.190Z,8.13
2022-12-20T06:31:12.028Z,5.10
2022-12-20T06:33:42.671Z,6.45
2022-12-20T06:36:11.031Z,7.82
2022-12-20T06:38:38.127Z,7.55
2022-12-20T06:41:05.744Z,5.32
2022-12-20T06:43:33.089Z,7.32
2022-12-20T06:46:00.360Z,4.65
2022-12-20T06:48:27.363Z,3.80
2022-12-20T06:50:56.377Z,8.13
2022-12-20T06:53:25.433Z,5.30
2022-12-20T06:55:52.584Z,7.05
2022-12-20T06:58:21.339Z,5.28
2022-12-20T07:00:49.691Z,5.57
2022-12-20T07:03:16.949Z,7.00
2022-12-20T07:05:44.129Z,4.28
2022-12-20T07:08:11.184Z,3.45
2022-12-20T07:10:38.492Z,5.18
2022-12-20T07:13:05.514Z,7.55
2022-12-20T07:15:32.711Z,4.90
2022-12-20T07:17:59.958Z,4.90
2022-12-20T07:20:27.074Z,5.07
2022-12-20T07:22:54.099Z,4.75
2022-12-20T07:25:21.340Z,7.03
2022-12-20T07:27:52.069Z,6.97
2022-12-20T07:30:20.537Z,4.38
2022-12-20T07:32:48.025Z,4.53
2022-12-20T07:35:15.774Z,4.68
2022-12-20T07:37:42.784Z,4.43
2022-12-20T07:40:11.648Z,5.00
2022-12-20T07:45:15.748Z,3.78
2022-12-20T07:47:44.016Z,7.10
2022-12-20T07:50:12.024Z,3.83
2022-12-20T07:52:43.330Z,4.38
2022-12-20T07:55:12.047Z,5.75
2022-12-20T07:57:53.567Z,3.65
2022-12-20T08:00:20.869Z,3.15
2022-12-20T08:02:54.617Z,4.75
2022-12-20T08:05:22.753Z,5.63
2022-12-20T08:07:53.568Z,4.93
2022-12-20T08:10:27.088Z,4.07
2022-12-20T08:12:55.267Z,5.15
2022-12-20T08:15:23.247Z,4.05
2022-12-20T08:17:50.670Z,4.47
2022-12-20T08:20:18.321Z,4.53
2022-12-20T08:22:45.519Z,3.78
2022-12-20T08:25:12.763Z,2.63
2022-12-20T08:27:39.928Z,2.95
2022-12-20T08:30:08.578Z,4.97
2022-12-20T08:32:36.482Z,4.10
2022-12-20T08:35:05.026Z,4.15
2022-12-20T08:37:32.107Z,4.00
2022-12-20T08:39:59.148Z,2.95
2022-12-20T08:42:26.129Z,4.47
2022-12-20T08:44:53.274Z,3.85
2022-12-20T08:47:20.279Z,4.45
2022-12-20T08:49:48.132Z,3.75
2022-12-20T08:52:15.565Z,4.18
2022-12-20T08:54:42.872Z,3.63
2022-12-20T08:57:09.889Z,4.38
2022-12-20T08:59:36.855Z,4.70
2022-12-20T09:02:04.072Z,5.28
2022-12-20T09:04:31.182Z,5.07
2022-12-20T09:06:58.298Z,4.22
2022-12-20T09:09:25.349Z,5.65
2022-12-20T09:11:52.433Z,3.78
2022-12-20T09:14:19.896Z,4.30
2022-12-20T09:16:46.866Z,4.18
2022-12-20T09:19:16.832Z,4.32
2022-12-20T09:21:43.787Z,4.03
2022-12-20T09:24:11.035Z,4.07
2022-12-20T09:26:38.459Z,3.05
2022-12-20T09:29:05.869Z,5.00
2022-12-20T09:31:32.959Z,5.00
2022-12-20T09:34:01.346Z,2.67
2022-12-20T09:36:30.092Z,5.20
2022-12-20T09:38:57.308Z,2.97
2022-12-20T09:41:33.489Z,3.15
2022-12-20T09:44:11.813Z,4.45
2022-12-20T09:46:40.923Z,2.53
2022-12-20T09:49:15.484Z,5.60
2022-12-20T09:52:21.427Z,5.07
2022-12-20T09:55:01.264Z,4.57
2022-12-20T10:00:16.470Z,2.55
2022-12-20T10:03:00.110Z,2.50
2022-12-20T10:05:50.954Z,4.65
2022-12-20T10:08:45.796Z,4.15
2022-12-20T10:11:18.959Z,2.92
2022-12-20T10:13:46.784Z,2.95
2022-12-20T10:16:19.847Z,4.28
2022-12-20T10:18:52.368Z,3.40
2022-12-20T10:21:33.126Z,3.22
2022-12-20T10:24:25.627Z,3.58
2022-12-20T10:26:52.778Z,4.28
2022-12-20T10:29:21.319Z,4.10
2022-12-20T10:32:00.883Z,2.75
2022-12-20T10:34:34.918Z,3.97
2022-12-20T10:37:16.057Z,2.33
2022-12-20T10:39:47.457Z,2.75
2022-12-20T10:42:31.862Z,3.85
2022-12-20T10:44:59.302Z,4.32
2022-12-20T10:47:35.233Z,3.78
2022-12-20T10:50:13.514Z,2.47
2022-12-20T10:52:40.646Z,2.42
2022-12-20T10:55:46.031Z,2.90
2022-12-20T10:58:30.016Z,2.45
2022-12-20T11:01:18.620Z,3.22
2022-12-20T11:03:58.358Z,2.47
2022-12-20T11:06:37.524Z,3.58
2022-12-20T11:09:32.903Z,2.40
2022-12-20T11:12:14.922Z,4.22
2022-12-20T11:14:44.898Z,4.25
2022-12-20T11:17:11.877Z,2.55
2022-12-20T11:19:47.773Z,2.78
2022-12-20T11:22:48.569Z,3.47
2022-12-20T11:25:15.577Z,3.60
2022-12-20T11:28:09.937Z,3.33
2022-12-20T11:31:04.373Z,4.55
2022-12-20T11:34:09.507Z,3.33
2022-12-20T11:37:04.691Z,2.75
2022-12-20T11:39:57.782Z,4.15
2022-12-20T11:42:43.703Z,3.45
2022-12-20T11:45:38.267Z,4.72
2022-12-20T11:48:17.331Z,4.60
2022-12-20T11:51:04.858Z,3.13
2022-12-20T11:53:56.431Z,4.18
2022-12-20T11:56:48.094Z,2.92
2022-12-20T11:59:27.970Z,3.75
2022-12-20T12:02:29.821Z,4.80
2022-12-20T12:05:01.554Z,4.47
2022-12-20T12:07:32.883Z,4.20
2022-12-20T12:10:14.132Z,3.67
2022-12-20T12:12:45.039Z,3.65
2022-12-20T12:15:32.095Z,4.35
2022-12-20T12:18:14.940Z,3.35
2022-12-20T12:20:45.005Z,3.08
2022-12-20T12:23:30.410Z,3.85
2022-12-20T12:26:02.447Z,3.25
2022-12-20T12:28:29.542Z,4.90
2022-12-20T12:31:21.565Z,3.03
2022-12-20T12:34:23.316Z,4.07
2022-12-20T12:37:17.799Z,2.55
2022-12-20T12:40:22.152Z,4.20
2022-12-20T12:43:26.784Z,3.00
2022-12-20T12:46:01.481Z,5.00
2022-12-20T12:48:41.250Z,3.33
2022-12-20T12:51:09.736Z,3.92
2022-12-20T12:53:45.954Z,3.22
2022-12-20T12:56:47.262Z,3.83
2022-12-20T12:59:20.006Z,2.17
2022-12-20T13:01:49.928Z,4.18
2022-12-20T13:04:20.171Z,2.65
2022-12-20T13:09:27.164Z,3.47
2022-12-20T13:12:01.363Z,2.40
2022-12-20T13:14:31.478Z,3.55
2022-12-20T13:17:22.436Z,4.10
2022-12-20T13:19:53.768Z,4.72
2022-12-20T13:22:23.938Z,2.92
2022-12-20T13:27:31.436Z,4.15
2022-12-20T13:30:00.216Z,3.35
2022-12-20T13:32:49.181Z,4.03
2022-12-20T13:35:25.094Z,3.38
2022-12-20T13:38:04.887Z,4.18
2022-12-20T13:40:47.178Z,3.55
2022-12-20T13:43:32.028Z,4.85
2022-12-20T13:46:01.862Z,1.90
2022-12-20T13:48:38.531Z,5.63
2022-12-20T13:51:08.293Z,3.60
2022-12-20T13:53:36.081Z,3.17
2022-12-20T13:56:42.551Z,5.53
2022-12-20T13:59:18.239Z,3.30
2022-12-20T14:01:57.902Z,2.70
2022-12-20T14:04:38.749Z,5.75
2022-12-20T14:07:06.300Z,5.47
2022-12-20T14:09:38.013Z,6.30
2022-12-20T14:12:17.882Z,4.53
2022-12-20T14:14:51.018Z,5.80
2022-12-20T14:17:32.654Z,6.13
2022-12-20T14:20:19.505Z,5.05
2022-12-20T14:23:15.611Z,2.17
2022-12-20T14:25:44.380Z,4.53
2022-12-20T14:28:32.838Z,5.40
2022-12-20T14:31:01.674Z,3.92
2022-12-20T14:33:37.397Z,3.92
2022-12-20T14:36:17.460Z,3.88
2022-12-20T14:38:45.906Z,4.75
2022-12-20T14:41:31.960Z,5.03
2022-12-20T14:44:21.430Z,2.63
2022-12-20T14:46:51.038Z,5.07
2022-12-20T14:49:30.385Z,5.35
2022-12-20T14:52:12.514Z,3.17
2022-12-20T14:55:10.962Z,4.68
2022-12-20T14:57:38.340Z,5.85
2022-12-20T15:00:11.435Z,5.15
2022-12-20T15:02:57.048Z,6.45
2022-12-20T15:05:38.897Z,6.78
2022-12-20T15:08:16.435Z,5.90
2022-12-20T15:11:07.769Z,4.13
2022-12-20T15:13:37.924Z,5.40
2022-12-20T15:18:43.041Z,6.10
2022-12-20T15:21:16.482Z,3.45
2022-12-20T15:23:54.710Z,6.57
2022-12-20T15:26:24.740Z,5.28
2022-12-20T15:28:52.704Z,5.40
2022-12-20T15:31:26.011Z,5.43
2022-12-20T15:34:02.478Z,5.22
2022-12-20T15:36:29.960Z,6.30
2022-12-20T15:39:14.680Z,6.47
2022-12-20T15:41:47.152Z,6.32
2022-12-20T15:44:26.437Z,4.30
2022-12-20T15:46:53.739Z,3.43
2022-12-20T15:49:23.880Z,6.90
2022-12-20T15:54:24.310Z,7.45
2022-12-20T15:56:51.651Z,5.53
2022-12-20T15:59:57.859Z,7.50
2022-12-20T16:02:28.240Z,5.65
2022-12-20T16:04:56.581Z,7.57
2022-12-20T16:07:24.211Z,7.47
2022-12-20T16:09:51.406Z,6.20
2022-12-20T16:12:23.922Z,7.03
2022-12-20T16:14:51.820Z,6.40
2022-12-20T16:17:18.818Z,6.38
2022-12-20T16:19:46.662Z,5.70
2022-12-20T16:22:24.233Z,5.57
2022-12-20T16:24:52.227Z,3.65
2022-12-20T16:27:20.475Z,6.70
2022-12-20T16:29:47.697Z,5.22
2022-12-20T16:32:20.047Z,6.30
2022-12-20T16:34:49.169Z,6.50
2022-12-20T16:37:17.511Z,3.25
2022-12-20T16:39:44.771Z,3.78
2022-12-20T16:42:23.375Z,2.65
2022-12-20T16:44:54.398Z,6.35
2022-12-20T16:47:22.013Z,3.38
2022-12-20T16:49:52.909Z,2.08
2022-12-20T16:52:22.172Z,3.85
2022-12-20T16:54:49.832Z,3.78
2022-12-20T16:57:16.832Z,4.03
2022-12-20T16:59:43.999Z,3.30
2022-12-20T17:02:28.661Z,2.60
2022-12-20T17:04:56.537Z,2.78
2022-12-20T17:07:23.749Z,7.70
2022-12-20T17:09:51.523Z,4.55
2022-12-20T17:12:21.636Z,3.45
2022-12-20T17:17:16.427Z,5.40
2022-12-20T17:19:43.480Z,6.45
2022-12-20T17:24:57.348Z,7.05
2022-12-20T17:27:25.041Z,5.82
2022-12-20T17:29:52.352Z,4.20
2022-12-20T17:32:25.705Z,2.33
2022-12-20T17:34:53.354Z,5.75
2022-12-20T17:37:21.564Z,3.03
2022-12-20T17:39:48.910Z,5.97
2022-12-20T17:42:16.888Z,5.47
2022-12-20T17:44:46.398Z,5.85
2022-12-20T17:47:13.812Z,2.10
2022-12-20T17:49:40.750Z,5.88
2022-12-20T17:52:15.649Z,2.17
2022-12-20T17:54:43.237Z,3.80
2022-12-20T17:57:16.644Z,7.28
2022-12-20T17:59:44.005Z,3.65
2022-12-20T18:02:22.002Z,4.03
2022-12-20T18:04:49.333Z,3.38
2022-12-20T18:07:16.414Z,2.95
2022-12-20T18:09:45.968Z,1.83
2022-12-20T18:12:12.887Z,3.47
2022-12-20T18:14:39.845Z,3.25
2022-12-20T18:17:06.931Z,2.58
2022-12-20T18:19:33.980Z,3.85
2022-12-20T18:22:01.520Z,3.67
2022-12-20T18:24:28.912Z,3.60
2022-12-20T18:26:56.007Z,6.15
2022-12-20T18:29:23.033Z,8.35
2022-12-20T18:31:50.094Z,7.18
2022-12-20T18:34:17.269Z,8.75
2022-12-20T18:36:44.352Z,8.20
2022-12-20T18:39:13.059Z,8.32
2022-12-20T18:41:43.043Z,7.65
2022-12-20T18:46:37.770Z,8.20
2022-12-20T18:49:05.043Z,8.20
2022-12-20T18:51:36.849Z,9.32
2022-12-20T18:54:05.897Z,9.25
2022-12-20T18:56:35.879Z,8.15
2022-12-20T18:59:10.934Z,9.38
2022-12-20T19:01:40.603Z,9.15
2022-12-20T19:04:08.399Z,6.10
2022-12-20T19:06:36.899Z,9.65
2022-12-20T19:09:07.075Z,4.88
2022-12-20T19:14:01.969Z,9.45
2022-12-20T19:16:32.237Z,10.20
2022-12-20T19:19:00.979Z,12.75
2022-12-20T19:21:31.166Z,4.68
2022-12-20T19:24:01.367Z,9.23
2022-12-20T19:26:29.843Z,10.98
2022-12-20T19:28:57.693Z,10.65
2022-12-20T19:31:33.938Z,9.90
2022-12-20T19:34:04.664Z,10.15
2022-12-20T19:36:36.106Z,9.90
2022-12-20T19:39:07.829Z,11.95
2022-12-20T19:41:36.254Z,11.43
2022-12-20T19:44:04.336Z,11.40
2022-12-20T19:46:31.410Z,14.60
2022-12-20T19:48:59.987Z,15.93
2022-12-20T19:51:28.461Z,11.18
2022-12-20T19:53:57.097Z,8.32
2022-12-20T19:56:27.006Z,10.07
2022-12-20T19:58:55.024Z,7.82
2022-12-20T20:01:25.933Z,8.63
2022-12-20T20:03:59.358Z,8.07
2022-12-20T20:06:28.099Z,9.95
2022-12-20T20:08:59.924Z,8.88
2022-12-20T20:11:27.700Z,9.40
2022-12-20T20:13:55.379Z,8.85
2022-12-20T20:16:23.189Z,8.82
2022-12-20T20:18:50.732Z,8.32
2022-12-20T20:21:21.992Z,8.65
2022-12-20T20:23:50.803Z,8.05
2022-12-20T20:26:21.258Z,8.75
2022-12-20T20:28:48.689Z,8.02
2022-12-20T20:31:17.879Z,8.57
2022-12-20T20:33:45.781Z,6.70
2022-12-20T20:36:15.703Z,6.00
2022-12-20T20:38:42.982Z,9.70
2022-12-20T20:41:10.797Z,10.10
2022-12-20T20:43:38.410Z,3.63
2022-12-20T20:46:11.700Z,7.65
2022-12-20T20:48:39.652Z,10.02
2022-12-20T20:51:06.932Z,4.40
2022-12-20T20:53:34.658Z,8.73
2022-12-20T20:56:03.032Z,6.28
2022-12-20T20:58:30.604Z,7.13
2022-12-20T21:01:02.566Z,6.18
2022-12-20T21:03:31.307Z,7.05
2022-12-20T21:08:45.687Z,6.30
2022-12-20T21:11:13.187Z,5.68
2022-12-20T21:13:40.413Z,5.03
2022-12-20T21:16:12.335Z,6.90
2022-12-20T21:18:39.383Z,5.00
2022-12-20T21:21:11.196Z,3.15
2022-12-20T21:23:39.373Z,7.55
2022-12-20T21:26:07.858Z,7.88
2022-12-20T21:28:35.938Z,9.18
2022-12-20T21:31:05.944Z,8.43
2022-12-20T21:36:05.880Z,8.82
2022-12-20T21:38:33.323Z,8.52
2022-12-20T21:41:06.386Z,9.95
2022-12-20T21:43:34.050Z,10.32
2022-12-20T21:46:01.278Z,11.30
2022-12-20T21:48:29.790Z,10.35
2022-12-20T21:51:06.468Z,10.77
2022-12-20T21:53:33.798Z,10.88
2022-12-20T21:56:01.373Z,11.25
2022-12-20T21:58:30.301Z,11.32
2022-12-20T22:00:57.817Z,11.30
2022-12-20T22:03:26.163Z,12.52
2022-12-20T22:05:55.960Z,10.88
2022-12-20T22:08:26.149Z,12.88
2022-12-20T22:13:40.792Z,7.50
2022-12-20T22:16:21.129Z,11.20
2022-12-20T22:18:50.901Z,11.35
2022-12-20T22:21:19.742Z,10.57
2022-12-20T22:23:47.049Z,10.45
2022-12-20T22:26:17.399Z,10.35
2022-12-20T22:28:50.205Z,10.77
2022-12-20T22:31:18.643Z,11.48
2022-12-20T22:33:46.042Z,8.80
2022-12-20T22:36:15.140Z,10.43
2022-12-20T22:38:46.223Z,10.52
2022-12-20T22:41:21.012Z,10.65
2022-12-20T22:43:48.743Z,10.88
2022-12-20T22:46:17.550Z,13.00
2022-12-20T22:48:45.738Z,11.40
2022-12-20T22:51:27.704Z,11.95
2022-12-20T22:53:58.481Z,12.20
2022-12-20T22:56:26.291Z,12.10
2022-12-20T22:58:53.522Z,11.15
2022-12-20T23:01:21.160Z,11.52
2022-12-20T23:03:48.998Z,10.98
2022-12-20T23:06:18.850Z,11.85
2022-12-20T23:08:46.428Z,11.63
2022-12-20T23:11:33.901Z,11.40
2022-12-20T23:14:19.691Z,12.23
2022-12-20T23:16:46.873Z,11.32
2022-12-20T23:19:13.924Z,11.15
2022-12-20T23:21:59.330Z,11.32
2022-12-20T23:24:26.437Z,10.80
2022-12-20T23:26:53.495Z,10.75
2022-12-20T23:29:20.507Z,12.77
2022-12-20T23:31:47.550Z,11.65
2022-12-20T23:34:14.777Z,11.93
2022-12-20T23:36:41.784Z,12.25
2022-12-20T23:39:09.174Z,11.82
2022-12-20T23:41:36.125Z,11.27
2022-12-20T23:44:04.797Z,14.05
2022-12-20T23:46:31.871Z,12.15
2022-12-20T23:48:58.966Z,14.60
2022-12-20T23:51:25.981Z,14.32
2022-12-20T23:53:52.930Z,12.32
2022-12-20T23:56:22.089Z,6.75
2022-12-20T23:58:54.867Z,9.77
